createdAt,value
2023-05-05T00:00:16.166Z,5.40
2023-05-05T00:03:04.501Z,5.20
2023-05-05T00:05:32.621Z,6.00
2023-05-05T00:08:00.706Z,5.40
2023-05-05T00:10:28.766Z,6.60
2023-05-05T00:12:56.760Z,5.50
2023-05-05T00:15:25.109Z,6.80
2023-05-05T00:17:53.178Z,7.10
2023-05-05T00:20:21.468Z,6.00
2023-05-05T00:22:49.379Z,6.80
2023-05-05T00:25:17.446Z,10.40
2023-05-05T00:27:45.848Z,7.80
2023-05-05T00:30:13.849Z,6.10
2023-05-05T00:32:41.873Z,7.30
2023-05-05T00:35:09.956Z,11.80
2023-05-05T00:37:37.970Z,10.70
2023-05-05T00:40:06.814Z,7.40
2023-05-05T00:42:50.942Z,10.80
2023-05-05T00:45:20.257Z,8.30
2023-05-05T00:47:54.230Z,10.90
2023-05-05T00:50:30.010Z,9.00
2023-05-05T00:53:04.511Z,9.00
2023-05-05T00:55:34.291Z,9.70
2023-05-05T00:58:04.548Z,13.20
2023-05-05T01:00:32.769Z,7.50
2023-05-05T01:03:00.983Z,7.60
2023-05-05T01:05:42.420Z,10.70
2023-05-05T01:08:41.577Z,11.30
2023-05-05T01:11:31.610Z,7.30
2023-05-05T01:14:26.497Z,7.00
2023-05-05T01:17:01.445Z,8.10
2023-05-05T01:20:06.416Z,7.50
2023-05-05T01:22:51.018Z,7.50
2023-05-05T01:25:56.023Z,9.20
2023-05-05T01:28:31.300Z,7.00
2023-05-05T01:31:17.913Z,8.00
2023-05-05T01:36:26.051Z,8.10
2023-05-05T01:41:48.240Z,10.10
2023-05-05T01:44:18.860Z,8.50
2023-05-05T01:46:48.996Z,7.40
2023-05-05T01:49:17.171Z,6.90
2023-05-05T01:51:48.970Z,7.20
2023-05-05T01:54:18.793Z,7.80
2023-05-05T01:56:49.327Z,7.90
2023-05-05T01:59:18.478Z,9.00
2023-05-05T02:01:49.014Z,7.20
2023-05-05T02:04:22.761Z,7.60
2023-05-05T02:06:53.211Z,10.30
2023-05-05T02:09:25.742Z,7.70
2023-05-05T02:11:57.189Z,8.50
2023-05-05T02:14:28.842Z,7.10
2023-05-05T02:16:58.144Z,7.20
2023-05-05T02:19:32.493Z,7.30
2023-05-05T02:22:00.643Z,8.30
2023-05-05T02:24:29.275Z,6.20
2023-05-05T02:26:58.933Z,12.40
2023-05-05T02:29:35.742Z,8.60
2023-05-05T02:32:13.681Z,7.40
2023-05-05T02:34:45.915Z,6.50
2023-05-05T02:37:20.000Z,7.60
2023-05-05T02:39:59.184Z,12.60
2023-05-05T02:42:34.044Z,11.00
2023-05-05T02:45:10.923Z,9.00
2023-05-05T02:47:40.285Z,8.80
2023-05-05T02:50:09.504Z,9.30
2023-05-05T02:52:39.260Z,8.40
2023-05-05T02:55:08.389Z,12.40
2023-05-05T02:57:50.946Z,8.20
2023-05-05T03:00:32.221Z,8.80
2023-05-05T03:03:25.967Z,8.70
2023-05-05T03:06:07.443Z,12.70
2023-05-05T03:08:41.065Z,11.10
2023-05-05T03:11:19.104Z,10.80
2023-05-05T03:13:53.934Z,11.20
2023-05-05T03:16:26.359Z,8.30
2023-05-05T03:18:56.966Z,13.30
2023-05-05T03:21:25.320Z,15.00
2023-05-05T03:23:54.004Z,11.20
2023-05-05T03:26:22.132Z,9.30
2023-05-05T03:28:50.996Z,10.80
2023-05-05T03:31:23.316Z,12.00
2023-05-05T03:33:54.904Z,9.80
2023-05-05T03:36:26.189Z,11.80
2023-05-05T03:38:56.587Z,10.50
2023-05-05T03:41:27.545Z,9.40
2023-05-05T03:43:56.153Z,7.70
2023-05-05T03:46:24.168Z,9.50
2023-05-05T03:48:52.202Z,6.60
2023-05-05T03:51:20.277Z,8.40
2023-05-05T03:53:48.286Z,7.50
2023-05-05T03:56:16.555Z,6.90
2023-05-05T03:58:44.891Z,7.00
2023-05-05T04:01:13.961Z,8.30
2023-05-05T04:03:42.047Z,9.10
2023-05-05T04:06:10.158Z,6.80
2023-05-05T04:08:38.198Z,9.00
2023-05-05T04:11:06.495Z,5.50
2023-05-05T04:13:34.968Z,7.00
2023-05-05T04:16:03.957Z,6.30
2023-05-05T04:18:32.586Z,6.70
2023-05-05T04:21:01.112Z,11.10
2023-05-05T04:23:29.082Z,5.30
2023-05-05T04:25:57.743Z,7.90
2023-05-05T04:28:26.181Z,7.70
2023-05-05T04:30:54.345Z,6.90
2023-05-05T04:33:22.621Z,5.80
2023-05-05T04:35:50.885Z,10.30
2023-05-05T04:38:20.905Z,6.10
2023-05-05T04:40:49.465Z,6.20
2023-05-05T04:43:17.875Z,5.30
2023-05-05T04:45:53.084Z,13.50
2023-05-05T04:48:21.342Z,5.90
2023-05-05T04:50:49.410Z,4.90
2023-05-05T04:53:18.158Z,4.90
2023-05-05T04:55:46.507Z,6.50
2023-05-05T04:58:14.434Z,5.50
2023-05-05T05:00:42.414Z,4.80
2023-05-05T05:03:12.108Z,5.50
2023-05-05T05:05:40.181Z,7.10
2023-05-05T05:08:09.485Z,8.20
2023-05-05T05:10:37.449Z,5.60
2023-05-05T05:13:05.471Z,7.90
2023-05-05T05:15:33.582Z,5.00
2023-05-05T05:18:01.590Z,6.10
2023-05-05T05:20:33.370Z,5.30
2023-05-05T05:23:02.520Z,5.20
2023-05-05T05:25:31.368Z,6.40
2023-05-05T05:28:09.676Z,7.30
2023-05-05T05:30:41.987Z,8.40
2023-05-05T05:33:10.805Z,6.20
2023-05-05T05:35:39.762Z,6.40
2023-05-05T05:38:08.247Z,4.00
2023-05-05T05:40:37.254Z,4.90
2023-05-05T05:43:05.325Z,4.40
2023-05-05T05:45:33.732Z,7.70
2023-05-05T05:48:03.589Z,6.30
2023-05-05T05:50:31.816Z,7.70
2023-05-05T05:53:00.218Z,6.20
2023-05-05T05:55:28.693Z,9.00
2023-05-05T05:57:58.160Z,5.40
2023-05-05T06:00:27.134Z,6.60
2023-05-05T06:03:00.081Z,4.30
2023-05-05T06:05:31.490Z,4.50
2023-05-05T06:07:59.790Z,4.80
2023-05-05T06:10:28.836Z,5.50
2023-05-05T06:13:03.738Z,4.50
2023-05-05T06:15:32.287Z,5.00
2023-05-05T06:18:00.962Z,4.50
2023-05-05T06:20:29.013Z,6.10
2023-05-05T06:22:57.219Z,8.40
2023-05-05T06:25:25.626Z,5.90
2023-05-05T06:27:53.808Z,3.80
2023-05-05T06:30:21.831Z,5.70
2023-05-05T06:32:49.959Z,4.20
2023-05-05T06:35:18.654Z,5.70
2023-05-05T06:37:46.535Z,5.20
2023-05-05T06:40:15.359Z,7.30
2023-05-05T06:42:43.284Z,3.70
2023-05-05T06:45:14.340Z,8.10
2023-05-05T06:47:42.631Z,5.80
2023-05-05T06:50:11.139Z,2.90
2023-05-05T06:52:39.259Z,4.00
2023-05-05T06:55:07.685Z,3.90
2023-05-05T06:57:35.875Z,3.80
2023-05-05T07:00:06.133Z,4.30
2023-05-05T07:02:34.387Z,4.90
2023-05-05T07:05:03.046Z,4.10
2023-05-05T07:07:32.462Z,3.10
2023-05-05T07:10:00.520Z,5.50
2023-05-05T07:12:31.269Z,4.00
2023-05-05T07:14:59.310Z,3.60
2023-05-05T07:17:27.284Z,6.00
2023-05-05T07:19:55.388Z,5.70
2023-05-05T07:22:23.273Z,3.40
2023-05-05T07:24:53.466Z,4.40
2023-05-05T07:27:22.535Z,4.30
2023-05-05T07:29:50.470Z,2.30
2023-05-05T07:32:18.542Z,4.00
2023-05-05T07:34:46.546Z,4.20
2023-05-05T07:37:14.493Z,2.80
2023-05-05T07:39:42.445Z,3.00
2023-05-05T07:42:10.968Z,2.50
2023-05-05T07:44:39.009Z,3.10
2023-05-05T07:47:06.908Z,2.70
2023-05-05T07:49:34.955Z,3.60
2023-05-05T07:52:03.071Z,3.20
2023-05-05T07:54:32.342Z,3.20
2023-05-05T07:57:00.245Z,4.50
2023-05-05T07:59:28.173Z,4.60
2023-05-05T08:01:56.122Z,3.30
2023-05-05T08:04:24.093Z,5.20
2023-05-05T08:06:52.085Z,3.30
2023-05-05T08:09:20.063Z,5.20
2023-05-05T08:11:47.994Z,6.10
2023-05-05T08:14:15.917Z,6.50
2023-05-05T08:16:43.900Z,3.30
2023-05-05T08:19:25.113Z,3.10
2023-05-05T08:21:56.550Z,3.50
2023-05-05T08:24:24.505Z,6.70
2023-05-05T08:29:50.066Z,7.60
2023-05-05T08:32:17.318Z,3.50
2023-05-05T08:34:43.880Z,3.90
2023-05-05T08:37:10.761Z,3.60
2023-05-05T08:39:37.364Z,5.20
2023-05-05T08:42:04.068Z,4.50
2023-05-05T08:44:30.831Z,4.40
2023-05-05T08:47:00.252Z,3.90
2023-05-05T08:49:31.651Z,5.90
2023-05-05T08:52:01.074Z,4.60
2023-05-05T08:54:30.132Z,6.90
2023-05-05T08:57:01.248Z,3.50
2023-05-05T08:59:32.219Z,5.50
2023-05-05T09:02:00.614Z,2.80
2023-05-05T09:04:27.854Z,2.90
2023-05-05T09:06:57.909Z,3.20
2023-05-05T09:09:25.832Z,3.00
2023-05-05T09:11:54.506Z,3.50
2023-05-05T09:14:21.410Z,3.80
2023-05-05T09:16:48.719Z,3.50
2023-05-05T09:19:15.330Z,3.40
2023-05-05T09:21:48.954Z,5.40
2023-05-05T09:24:15.599Z,5.40
2023-05-05T09:26:44.940Z,4.20
2023-05-05T09:29:22.050Z,3.10
2023-05-05T09:32:07.520Z,2.50
2023-05-05T09:34:35.414Z,3.80
2023-05-05T09:37:02.735Z,2.60
2023-05-05T09:39:29.417Z,2.20
2023-05-05T09:41:56.212Z,5.20
2023-05-05T09:44:34.606Z,3.50
2023-05-05T09:47:01.452Z,5.10
2023-05-05T09:49:30.041Z,7.60
2023-05-05T09:51:56.759Z,4.90
2023-05-05T09:54:27.670Z,7.40
2023-05-05T09:56:55.751Z,3.80
2023-05-05T09:59:23.543Z,4.00
2023-05-05T10:01:51.226Z,5.00
2023-05-05T10:04:28.547Z,5.40
2023-05-05T10:06:58.469Z,4.30
2023-05-05T10:09:26.465Z,3.90
2023-05-05T10:11:55.482Z,6.00
2023-05-05T10:14:23.682Z,7.10
2023-05-05T10:16:51.911Z,3.30
2023-05-05T10:19:23.095Z,4.20
2023-05-05T10:21:52.505Z,5.30
2023-05-05T10:24:52.454Z,7.80
2023-05-05T10:27:19.851Z,5.30
2023-05-05T10:30:06.941Z,4.00
2023-05-05T10:33:30.082Z,3.00
2023-05-05T10:36:01.622Z,3.30
2023-05-05T10:38:31.185Z,5.40
2023-05-05T10:41:00.649Z,3.00
2023-05-05T10:43:28.833Z,4.00
2023-05-05T10:45:55.993Z,3.50
2023-05-05T10:48:51.411Z,4.00
2023-05-05T10:51:38.738Z,3.20
2023-05-05T10:54:24.178Z,2.80
2023-05-05T10:56:51.222Z,2.90
2023-05-05T10:59:39.026Z,3.10
2023-05-05T11:02:28.772Z,12.90
2023-05-05T11:05:20.776Z,5.90
2023-05-05T11:07:49.390Z,4.20
2023-05-05T11:10:19.691Z,3.50
2023-05-05T11:12:58.658Z,7.40
2023-05-05T11:15:30.928Z,4.10
2023-05-05T11:17:59.547Z,3.40
2023-05-05T11:20:35.819Z,3.10
2023-05-05T11:23:02.576Z,3.00
2023-05-05T11:25:36.214Z,3.20
2023-05-05T11:28:29.215Z,3.60
2023-05-05T11:30:56.047Z,4.50
2023-05-05T11:33:37.279Z,3.20
2023-05-05T11:36:06.696Z,4.80
2023-05-05T11:38:36.729Z,4.50
2023-05-05T11:41:58.381Z,5.20
2023-05-05T11:44:31.067Z,4.60
2023-05-05T11:47:01.115Z,2.80
2023-05-05T11:49:28.442Z,3.90
2023-05-05T11:51:56.484Z,3.10
2023-05-05T11:54:24.460Z,4.90
2023-05-05T11:56:53.836Z,21.40
2023-05-05T11:59:21.106Z,4.50
2023-05-05T12:01:47.988Z,5.10
2023-05-05T12:04:15.459Z,4.10
2023-05-05T12:06:43.171Z,5.90
2023-05-05T12:09:21.107Z,6.20
2023-05-05T12:11:48.836Z,2.80
2023-05-05T12:14:15.760Z,3.50
2023-05-05T12:17:08.226Z,3.40
2023-05-05T12:19:35.579Z,3.20
2023-05-05T12:22:03.775Z,4.80
2023-05-05T12:24:30.662Z,5.40
2023-05-05T12:27:08.407Z,5.60
2023-05-05T12:29:34.951Z,4.80
2023-05-05T12:32:01.635Z,5.60
2023-05-05T12:34:28.798Z,3.60
2023-05-05T12:36:55.554Z,7.20
2023-05-05T12:39:22.277Z,3.20
2023-05-05T12:41:49.173Z,3.40
2023-05-05T12:44:15.938Z,5.20
2023-05-05T12:46:46.859Z,4.00
2023-05-05T12:49:13.947Z,4.30
2023-05-05T12:51:53.491Z,2.70
2023-05-05T12:54:20.093Z,4.40
2023-05-05T12:56:47.380Z,4.10
2023-05-05T12:59:23.536Z,3.50
2023-05-05T13:01:52.111Z,2.50
2023-05-05T13:04:20.791Z,3.80
2023-05-05T13:06:49.052Z,2.40
2023-05-05T13:09:23.627Z,2.80
2023-05-05T13:11:50.726Z,3.00
2023-05-05T13:14:17.971Z,2.70
2023-05-05T13:16:44.528Z,2.80
2023-05-05T13:19:11.166Z,2.70
2023-05-05T13:21:37.870Z,3.00
2023-05-05T13:24:23.028Z,4.00
2023-05-05T13:26:52.517Z,4.80
2023-05-05T13:29:19.121Z,3.10
2023-05-05T13:31:45.843Z,3.50
2023-05-05T13:34:12.666Z,3.70
2023-05-05T13:36:39.187Z,4.40
2023-05-05T13:39:06.427Z,3.80
2023-05-05T13:41:33.075Z,2.30
2023-05-05T13:43:59.721Z,3.70
2023-05-05T13:46:26.482Z,2.70
2023-05-05T13:48:56.661Z,6.20
2023-05-05T13:51:23.686Z,2.30
2023-05-05T13:53:50.288Z,3.50
2023-05-05T13:56:18.457Z,2.60
2023-05-05T13:58:45.746Z,2.80
2023-05-05T14:01:12.708Z,3.20
2023-05-05T14:03:39.494Z,2.80
2023-05-05T14:06:08.345Z,4.80
2023-05-05T14:08:35.198Z,3.10
2023-05-05T14:11:02.620Z,2.50
2023-05-05T14:13:29.305Z,3.40
2023-05-05T14:15:57.763Z,2.60
2023-05-05T14:18:25.135Z,4.00
2023-05-05T14:20:51.886Z,3.80
2023-05-05T14:23:18.625Z,2.90
2023-05-05T14:25:45.237Z,3.10
2023-05-05T14:28:11.926Z,2.30
2023-05-05T14:30:39.316Z,3.30
2023-05-05T14:33:06.301Z,3.20
2023-05-05T14:35:33.016Z,3.40
2023-05-05T14:37:59.732Z,3.70
2023-05-05T14:40:26.275Z,3.60
2023-05-05T14:42:55.635Z,3.00
2023-05-05T14:45:22.740Z,4.00
2023-05-05T14:47:49.561Z,3.10
2023-05-05T14:50:16.353Z,3.30
2023-05-05T14:52:43.884Z,4.20
2023-05-05T14:55:11.090Z,5.00
2023-05-05T14:57:38.138Z,4.30
2023-05-05T15:00:06.542Z,2.20
2023-05-05T15:02:33.269Z,3.30
2023-05-05T15:04:59.989Z,2.50
2023-05-05T15:07:27.964Z,2.90
2023-05-05T15:09:57.864Z,2.40
2023-05-05T15:12:25.358Z,3.30
2023-05-05T15:14:52.038Z,3.80
2023-05-05T15:17:21.682Z,4.00
2023-05-05T15:19:48.387Z,2.10
2023-05-05T15:22:14.960Z,4.70
2023-05-05T15:24:41.600Z,4.20
2023-05-05T15:27:08.242Z,3.50
2023-05-05T15:29:34.970Z,5.90
2023-05-05T15:32:01.741Z,1.90
2023-05-05T15:34:29.024Z,2.30
2023-05-05T15:36:56.198Z,2.30
2023-05-05T15:39:22.739Z,2.50
2023-05-05T15:41:49.461Z,4.70
2023-05-05T15:44:16.900Z,3.30
2023-05-05T15:46:43.581Z,4.50
2023-05-05T15:49:10.193Z,3.90
2023-05-05T15:51:36.914Z,2.10
2023-05-05T15:54:03.887Z,2.20
2023-05-05T15:56:30.908Z,2.50
2023-05-05T15:58:57.789Z,1.70
2023-05-05T16:01:24.465Z,2.00
2023-05-05T16:03:51.168Z,1.70
2023-05-05T16:06:17.794Z,1.90
2023-05-05T16:08:46.992Z,3.30
2023-05-05T16:11:13.884Z,2.50
2023-05-05T16:13:41.907Z,3.10
2023-05-05T16:16:09.127Z,1.80
2023-05-05T16:18:35.690Z,1.70
2023-05-05T16:21:02.318Z,6.10
2023-05-05T16:23:29.003Z,2.00
2023-05-05T16:25:56.201Z,3.20
2023-05-05T16:28:22.766Z,2.70
2023-05-05T16:30:49.338Z,3.10
2023-05-05T16:33:15.938Z,2.80
2023-05-05T16:35:45.791Z,7.40
2023-05-05T16:38:12.993Z,5.30
2023-05-05T16:40:40.293Z,2.80
2023-05-05T16:43:06.946Z,3.30
2023-05-05T16:45:33.567Z,2.70
2023-05-05T16:48:00.223Z,2.00
2023-05-05T16:50:27.096Z,2.60
2023-05-05T16:52:53.804Z,2.30
2023-05-05T16:55:20.483Z,5.60
2023-05-05T16:57:47.347Z,2.80
2023-05-05T17:00:14.998Z,2.40
2023-05-05T17:02:41.711Z,2.80
2023-05-05T17:05:09.092Z,4.60
2023-05-05T17:07:35.856Z,3.20
2023-05-05T17:10:02.550Z,2.50
2023-05-05T17:12:29.227Z,2.10
2023-05-05T17:14:56.255Z,3.10
2023-05-05T17:17:22.835Z,2.10
2023-05-05T17:19:49.416Z,2.60
2023-05-05T17:22:16.020Z,5.20
2023-05-05T17:24:42.610Z,1.70
2023-05-05T17:27:09.187Z,3.50
2023-05-05T17:29:40.203Z,3.90
2023-05-05T17:32:08.372Z,2.00
2023-05-05T17:34:35.102Z,2.30
2023-05-05T17:37:02.008Z,3.50
2023-05-05T17:39:30.128Z,2.50
2023-05-05T17:41:56.691Z,5.60
2023-05-05T17:44:23.438Z,3.00
2023-05-05T17:46:50.073Z,2.60
2023-05-05T17:49:16.690Z,1.60
2023-05-05T17:51:43.253Z,1.80
2023-05-05T17:54:10.103Z,2.50
2023-05-05T17:56:37.400Z,2.50
2023-05-05T17:59:04.044Z,2.30
2023-05-05T18:01:30.683Z,4.50
2023-05-05T18:03:57.255Z,5.10
2023-05-05T18:06:24.381Z,3.10
2023-05-05T18:08:51.007Z,3.00
2023-05-05T18:11:20.524Z,6.20
2023-05-05T18:13:47.084Z,3.10
2023-05-05T18:16:13.825Z,3.50
2023-05-05T18:18:41.114Z,3.90
2023-05-05T18:21:11.322Z,2.80
2023-05-05T18:23:39.116Z,2.70
2023-05-05T18:26:06.685Z,2.30
2023-05-05T18:28:33.468Z,5.00
2023-05-05T18:31:00.959Z,2.60
2023-05-05T18:33:27.768Z,4.80
2023-05-05T18:35:54.616Z,3.70
2023-05-05T18:38:21.691Z,3.40
2023-05-05T18:40:48.341Z,2.30
2023-05-05T18:43:14.912Z,2.80
2023-05-05T18:45:41.458Z,4.90
2023-05-05T18:48:08.064Z,4.50
2023-05-05T18:50:36.283Z,5.90
2023-05-05T18:53:03.079Z,4.20
2023-05-05T18:55:29.940Z,5.00
2023-05-05T18:57:56.645Z,5.90
2023-05-05T19:00:23.869Z,3.70
2023-05-05T19:02:51.277Z,2.40
2023-05-05T19:05:18.080Z,3.80
2023-05-05T19:07:45.319Z,2.50
2023-05-05T19:10:12.318Z,2.50
2023-05-05T19:12:39.070Z,2.70
2023-05-05T19:15:06.379Z,2.70
2023-05-05T19:17:33.216Z,5.40
2023-05-05T19:19:59.921Z,5.50
2023-05-05T19:22:26.668Z,3.10
2023-05-05T19:24:53.257Z,5.20
2023-05-05T19:27:19.874Z,7.30
2023-05-05T19:29:51.296Z,27.30
2023-05-05T19:32:19.028Z,110.10
2023-05-05T19:34:46.550Z,86.40
2023-05-05T19:37:13.307Z,322.00
2023-05-05T19:39:42.602Z,135.10
2023-05-05T19:42:09.220Z,124.20
2023-05-05T19:44:35.784Z,58.10
2023-05-05T19:47:02.680Z,43.20
2023-05-05T19:49:29.462Z,32.30
2023-05-05T19:51:57.059Z,28.80
2023-05-05T19:54:25.257Z,24.30
2023-05-05T19:56:52.069Z,7.80
2023-05-05T19:59:18.725Z,20.90
2023-05-05T20:01:45.580Z,10.40
2023-05-05T20:04:12.152Z,16.20
2023-05-05T20:06:38.728Z,18.30
2023-05-05T20:09:05.719Z,6.30
2023-05-05T20:11:32.776Z,9.10
2023-05-05T20:13:59.422Z,7.50
2023-05-05T20:16:26.210Z,13.00
2023-05-05T20:18:52.827Z,5.50
2023-05-05T20:21:20.599Z,4.50
2023-05-05T20:23:47.368Z,7.10
2023-05-05T20:26:13.989Z,5.20
2023-05-05T20:28:44.171Z,5.90
2023-05-05T20:31:13.555Z,8.40
2023-05-05T20:33:40.307Z,7.60
2023-05-05T20:36:07.146Z,9.10
2023-05-05T20:38:33.947Z,9.80
2023-05-05T20:41:00.615Z,8.00
2023-05-05T20:43:27.286Z,6.10
2023-05-05T20:45:53.988Z,11.40
2023-05-05T20:48:20.668Z,12.20
2023-05-05T20:50:47.291Z,9.20
2023-05-05T20:53:14.357Z,11.00
2023-05-05T20:55:41.097Z,9.90
2023-05-05T20:58:07.750Z,11.70
2023-05-05T21:00:34.668Z,11.70
2023-05-05T21:03:04.756Z,14.60
2023-05-05T21:05:31.565Z,13.80
2023-05-05T21:08:00.648Z,12.00
2023-05-05T21:10:28.338Z,7.70
2023-05-05T21:12:54.991Z,6.90
2023-05-05T21:15:21.665Z,7.50
2023-05-05T21:17:48.254Z,11.40
2023-05-05T21:20:15.767Z,10.90
2023-05-05T21:22:42.418Z,8.60
2023-05-05T21:25:17.733Z,11.60
2023-05-05T21:27:44.890Z,8.50
2023-05-05T21:30:11.848Z,8.80
2023-05-05T21:32:39.564Z,9.20
2023-05-05T21:35:08.004Z,7.40
2023-05-05T21:37:37.261Z,7.60
2023-05-05T21:40:05.659Z,17.50
2023-05-05T21:42:32.261Z,12.80
2023-05-05T21:44:58.816Z,10.20
2023-05-05T21:47:26.684Z,8.60
2023-05-05T21:49:53.295Z,8.10
2023-05-05T21:52:19.978Z,7.00
2023-05-05T21:54:46.535Z,9.90
2023-05-05T21:57:13.140Z,9.70
2023-05-05T21:59:40.579Z,9.80
2023-05-05T22:02:07.383Z,7.10
2023-05-05T22:04:34.033Z,7.80
2023-05-05T22:07:00.781Z,9.00
2023-05-05T22:09:27.466Z,7.40
2023-05-05T22:11:54.143Z,6.80
2023-05-05T22:14:20.866Z,8.40
2023-05-05T22:16:47.590Z,7.10
2023-05-05T22:19:14.259Z,10.60
2023-05-05T22:21:40.964Z,5.90
2023-05-05T22:24:07.826Z,7.20
2023-05-05T22:26:34.519Z,6.10
2023-05-05T22:29:01.143Z,6.40
2023-05-05T22:31:28.765Z,8.30
2023-05-05T22:33:55.994Z,5.90
2023-05-05T22:36:22.663Z,7.50
2023-05-05T22:38:49.300Z,6.10
2023-05-05T22:41:15.939Z,6.90
2023-05-05T22:43:42.631Z,6.10
2023-05-05T22:46:09.511Z,7.80
2023-05-05T22:48:36.228Z,7.90
2023-05-05T22:51:03.068Z,9.50
2023-05-05T22:53:29.712Z,7.50
2023-05-05T22:55:57.843Z,9.90
2023-05-05T22:58:25.315Z,7.20
2023-05-05T23:00:52.000Z,7.00
2023-05-05T23:03:18.848Z,7.10
2023-05-05T23:05:45.568Z,9.10
2023-05-05T23:08:12.252Z,6.70
2023-05-05T23:10:38.817Z,8.00
2023-05-05T23:13:10.076Z,7.50
2023-05-05T23:15:36.765Z,5.80
2023-05-05T23:28:25.437Z,6.10
2023-05-05T23:30:53.424Z,6.40
2023-05-05T23:33:21.497Z,9.40
2023-05-05T23:35:49.469Z,8.40
2023-05-05T23:38:17.434Z,9.60
2023-05-05T23:40:45.371Z,6.60
2023-05-05T23:43:13.471Z,5.50
2023-05-05T23:45:41.558Z,8.90
2023-05-05T23:48:09.556Z,8.80
2023-05-05T23:50:37.495Z,9.90
2023-05-05T23:53:05.481Z,6.70
2023-05-05T23:55:33.541Z,6.90
2023-05-05T23:58:01.498Z,8.20
